createdAt,value
2023-02-02T00:01:30.237Z,58.60
2023-02-02T00:04:00.702Z,58.50
2023-02-02T00:06:28.251Z,58.50
2023-02-02T00:08:57.297Z,58.30
2023-02-02T00:11:24.784Z,58.20
2023-02-02T00:13:53.097Z,58.10
2023-02-02T00:16:29.463Z,57.90
2023-02-02T00:18:58.867Z,57.80
2023-02-02T00:21:26.271Z,57.70
2023-02-02T00:23:53.588Z,57.70
2023-02-02T00:26:21.698Z,57.80
2023-02-02T00:28:48.896Z,58.00
2023-02-02T00:31:16.131Z,57.80
2023-02-02T00:33:47.348Z,57.90
2023-02-02T00:36:14.850Z,57.80
2023-02-02T00:38:42.047Z,57.90
2023-02-02T00:41:09.248Z,57.90
2023-02-02T00:43:36.553Z,58.00
2023-02-02T00:46:03.911Z,58.00
2023-02-02T00:48:32.642Z,58.10
2023-02-02T00:50:59.750Z,58.30
2023-02-02T00:53:26.909Z,58.40
2023-02-02T00:55:54.165Z,58.80
2023-02-02T00:58:22.039Z,59.00
2023-02-02T01:00:51.507Z,59.00
2023-02-02T01:03:18.720Z,59.00
2023-02-02T01:05:45.869Z,59.10
2023-02-02T01:08:13.079Z,59.10
2023-02-02T01:10:40.206Z,59.50
2023-02-02T01:13:07.426Z,59.40
2023-02-02T01:15:34.570Z,59.30
2023-02-02T01:18:01.757Z,59.50
2023-02-02T01:20:29.484Z,59.40
2023-02-02T01:22:56.536Z,59.80
2023-02-02T01:25:24.009Z,59.80
2023-02-02T01:27:51.348Z,60.00
2023-02-02T01:30:18.657Z,60.00
2023-02-02T01:32:45.771Z,59.90
2023-02-02T01:35:12.903Z,60.00
2023-02-02T01:37:40.031Z,60.10
2023-02-02T01:40:08.034Z,60.20
2023-02-02T01:42:35.201Z,60.20
2023-02-02T01:45:14.445Z,60.10
2023-02-02T01:47:50.409Z,60.00
2023-02-02T01:50:17.943Z,59.80
2023-02-02T01:52:47.354Z,59.80
2023-02-02T01:55:15.682Z,60.00
2023-02-02T01:57:46.049Z,61.40
2023-02-02T02:00:15.256Z,61.00
2023-02-02T02:02:46.936Z,61.00
2023-02-02T02:05:14.717Z,61.30
2023-02-02T02:07:42.226Z,61.20
2023-02-02T02:10:09.939Z,61.50
2023-02-02T02:12:37.102Z,61.30
2023-02-02T02:15:23.292Z,61.00
2023-02-02T02:18:09.209Z,61.00
2023-02-02T02:21:17.347Z,61.20
2023-02-02T02:24:15.314Z,61.40
2023-02-02T02:26:51.147Z,61.30
2023-02-02T02:29:36.102Z,61.10
2023-02-02T02:32:19.582Z,61.00
2023-02-02T02:35:08.389Z,60.60
2023-02-02T02:37:55.593Z,60.50
2023-02-02T02:40:29.958Z,60.70
2023-02-02T02:42:59.663Z,62.00
2023-02-02T02:45:27.529Z,62.50
2023-02-02T02:47:55.089Z,63.00
2023-02-02T02:50:22.701Z,63.40
2023-02-02T02:52:50.967Z,63.20
2023-02-02T02:55:18.142Z,63.00
2023-02-02T02:58:05.338Z,62.80
2023-02-02T03:01:15.332Z,62.40
2023-02-02T03:04:13.325Z,62.50
2023-02-02T03:06:49.328Z,62.70
2023-02-02T03:09:22.350Z,62.70
2023-02-02T03:11:49.359Z,62.80
2023-02-02T03:14:16.413Z,62.60
2023-02-02T03:16:43.463Z,62.50
2023-02-02T03:19:10.639Z,62.40
2023-02-02T03:21:37.754Z,62.00
2023-02-02T03:24:05.159Z,61.80
2023-02-02T03:26:32.675Z,61.90
2023-02-02T03:28:59.918Z,61.70
2023-02-02T03:31:27.323Z,61.60
2023-02-02T03:33:55.257Z,61.70
2023-02-02T03:36:22.586Z,61.70
2023-02-02T03:38:49.796Z,61.90
2023-02-02T03:41:17.098Z,62.40
2023-02-02T03:43:44.260Z,63.00
2023-02-02T03:46:11.456Z,63.20
2023-02-02T03:48:39.316Z,63.30
2023-02-02T03:51:11.791Z,63.40
2023-02-02T03:53:39.725Z,63.50
2023-02-02T03:56:07.260Z,63.60
2023-02-02T03:58:34.331Z,63.40
2023-02-02T04:01:05.519Z,63.40
2023-02-02T04:03:33.014Z,63.50
2023-02-02T04:06:00.440Z,63.70
2023-02-02T04:08:28.626Z,64.40
2023-02-02T04:10:55.724Z,65.60
2023-02-02T04:13:22.759Z,66.40
2023-02-02T04:15:58.057Z,66.50
2023-02-02T04:18:25.229Z,66.10
2023-02-02T04:20:59.882Z,66.10
2023-02-02T04:23:27.312Z,66.40
2023-02-02T04:25:54.451Z,66.90
2023-02-02T04:28:23.974Z,67.10
2023-02-02T04:30:51.750Z,66.60
2023-02-02T04:33:19.180Z,66.30
2023-02-02T04:35:46.452Z,65.90
2023-02-02T04:38:13.597Z,66.30
2023-02-02T04:40:41.617Z,66.40
2023-02-02T04:43:08.729Z,66.10
2023-02-02T04:45:36.001Z,65.60
2023-02-02T04:48:03.333Z,65.50
2023-02-02T04:50:30.661Z,65.50
2023-02-02T04:52:58.110Z,65.40
2023-02-02T04:55:25.561Z,65.70
2023-02-02T04:57:53.103Z,66.20
2023-02-02T05:00:20.451Z,66.20
2023-02-02T05:02:47.926Z,66.00
2023-02-02T05:05:15.270Z,66.00
2023-02-02T05:07:42.525Z,65.90
2023-02-02T05:10:10.593Z,66.50
2023-02-02T05:12:37.797Z,66.30
2023-02-02T05:15:05.864Z,65.80
2023-02-02T05:17:33.237Z,65.40
2023-02-02T05:20:00.785Z,65.40
2023-02-02T05:22:29.084Z,65.30
2023-02-02T05:24:58.351Z,65.50
2023-02-02T05:27:26.066Z,65.00
2023-02-02T05:29:53.307Z,64.90
2023-02-02T05:32:23.118Z,64.80
2023-02-02T05:34:50.371Z,65.00
2023-02-02T05:37:17.765Z,64.90
2023-02-02T05:39:44.936Z,64.90
2023-02-02T05:42:12.071Z,65.10
2023-02-02T05:44:39.210Z,64.80
2023-02-02T05:47:06.346Z,64.90
2023-02-02T05:49:33.457Z,65.00
2023-02-02T05:52:00.835Z,65.30
2023-02-02T05:54:28.077Z,65.60
2023-02-02T05:56:56.170Z,65.60
2023-02-02T05:59:23.524Z,65.80
2023-02-02T06:01:50.675Z,65.80
2023-02-02T06:04:18.046Z,65.80
2023-02-02T06:06:45.946Z,65.60
2023-02-02T06:09:13.188Z,65.40
2023-02-02T06:11:40.504Z,66.30
2023-02-02T06:14:08.214Z,65.80
2023-02-02T06:16:35.497Z,65.70
2023-02-02T06:19:02.736Z,65.40
2023-02-02T06:21:31.719Z,65.10
2023-02-02T06:23:59.014Z,65.40
2023-02-02T06:26:27.280Z,65.60
2023-02-02T06:28:54.942Z,65.70
2023-02-02T06:31:22.497Z,65.40
2023-02-02T06:33:56.247Z,65.10
2023-02-02T06:36:27.447Z,65.10
2023-02-02T06:38:55.671Z,65.00
2023-02-02T06:41:22.795Z,64.30
2023-02-02T06:43:50.201Z,64.20
2023-02-02T06:46:17.586Z,64.70
2023-02-02T06:48:46.079Z,64.00
2023-02-02T06:51:13.203Z,63.50
2023-02-02T06:53:40.332Z,63.00
2023-02-02T06:56:09.133Z,62.60
2023-02-02T06:58:36.286Z,62.20
2023-02-02T07:01:07.913Z,62.10
2023-02-02T07:03:35.223Z,60.40
2023-02-02T07:06:22.747Z,57.30
2023-02-02T07:09:02.248Z,54.40
2023-02-02T07:11:38.216Z,52.10
2023-02-02T07:14:09.966Z,50.70
2023-02-02T07:16:37.323Z,51.20
2023-02-02T07:19:04.706Z,52.90
2023-02-02T07:21:38.310Z,54.10
2023-02-02T07:24:05.994Z,55.30
2023-02-02T07:26:36.816Z,56.20
2023-02-02T07:29:07.377Z,56.90
2023-02-02T07:31:36.643Z,57.70
2023-02-02T07:34:04.014Z,58.10
2023-02-02T07:36:31.332Z,58.40
2023-02-02T07:39:00.750Z,58.50
2023-02-02T07:41:28.097Z,58.30
2023-02-02T07:43:55.358Z,56.20
2023-02-02T07:46:22.693Z,52.20
2023-02-02T07:48:49.921Z,48.90
2023-02-02T07:51:18.119Z,45.90
2023-02-02T07:53:47.580Z,42.90
2023-02-02T07:56:22.764Z,40.90
2023-02-02T07:58:52.349Z,39.20
2023-02-02T08:01:21.455Z,38.20
2023-02-02T08:03:48.931Z,37.10
2023-02-02T08:06:21.905Z,35.60
2023-02-02T08:08:49.458Z,34.90
2023-02-02T08:11:18.370Z,34.30
2023-02-02T08:13:48.607Z,33.60
2023-02-02T08:16:16.204Z,33.00
2023-02-02T08:18:44.474Z,32.50
2023-02-02T08:21:11.843Z,32.20
2023-02-02T08:23:39.497Z,31.70
2023-02-02T08:26:20.903Z,31.70
2023-02-02T08:28:49.491Z,31.70
2023-02-02T08:31:19.394Z,32.40
2023-02-02T08:33:46.609Z,32.20
2023-02-02T08:36:14.683Z,32.80
2023-02-02T08:38:42.015Z,32.70
2023-02-02T08:41:11.011Z,32.60
2023-02-02T08:43:38.420Z,32.10
2023-02-02T08:46:07.062Z,32.90
2023-02-02T08:48:34.909Z,32.40
2023-02-02T08:51:02.890Z,31.50
2023-02-02T08:53:30.147Z,30.20
2023-02-02T08:56:04.403Z,29.60
2023-02-02T08:58:31.939Z,28.20
2023-02-02T09:01:11.962Z,28.20
2023-02-02T09:03:42.096Z,29.50
2023-02-02T09:06:10.925Z,31.30
2023-02-02T09:08:38.209Z,30.80
2023-02-02T09:11:18.392Z,30.90
2023-02-02T09:13:46.724Z,31.80
2023-02-02T09:16:16.256Z,33.20
2023-02-02T09:18:43.659Z,34.10
2023-02-02T09:21:12.464Z,34.50
2023-02-02T09:23:41.088Z,35.40
2023-02-02T09:26:22.007Z,35.40
2023-02-02T09:28:53.757Z,36.20
2023-02-02T09:31:23.495Z,36.50
2023-02-02T09:33:50.925Z,37.50
2023-02-02T09:36:20.914Z,38.20
2023-02-02T09:38:49.524Z,39.00
2023-02-02T09:41:41.365Z,39.70
2023-02-02T09:44:41.288Z,40.40
2023-02-02T09:47:22.813Z,41.20
2023-02-02T09:50:11.884Z,41.90
2023-02-02T09:53:03.450Z,42.50
2023-02-02T09:55:40.823Z,42.50
2023-02-02T09:58:11.403Z,42.50
2023-02-02T10:00:46.125Z,42.50
2023-02-02T10:03:22.590Z,42.50
2023-02-02T10:05:57.367Z,42.20
2023-02-02T10:08:34.890Z,42.00
2023-02-02T10:11:31.439Z,42.00
2023-02-02T10:14:03.001Z,42.10
2023-02-02T10:16:30.631Z,42.90
2023-02-02T10:19:04.775Z,43.60
2023-02-02T10:22:09.023Z,43.70
2023-02-02T10:24:36.330Z,43.50
2023-02-02T10:27:16.987Z,43.70
2023-02-02T10:29:49.184Z,41.90
2023-02-02T10:32:24.846Z,39.70
2023-02-02T10:35:12.526Z,38.50
2023-02-02T10:37:57.422Z,38.30
2023-02-02T10:41:00.496Z,38.30
2023-02-02T10:43:48.886Z,37.80
2023-02-02T10:46:48.811Z,35.20
2023-02-02T10:49:39.292Z,33.30
2023-02-02T10:52:12.234Z,31.50
2023-02-02T10:55:11.687Z,30.00
2023-02-02T10:57:41.896Z,30.10
2023-02-02T11:00:26.099Z,30.20
2023-02-02T11:02:53.877Z,31.50
2023-02-02T11:05:41.900Z,32.80
2023-02-02T11:08:25.363Z,34.20
2023-02-02T11:10:53.407Z,35.70
2023-02-02T11:13:32.951Z,36.50
2023-02-02T11:16:43.104Z,36.60
2023-02-02T11:19:24.831Z,36.40
2023-02-02T11:21:59.294Z,35.60
2023-02-02T11:24:40.798Z,35.60
2023-02-02T11:27:15.757Z,36.20
2023-02-02T11:29:46.000Z,36.70
2023-02-02T11:32:51.691Z,37.30
2023-02-02T11:35:23.685Z,38.20
2023-02-02T11:37:57.751Z,39.30
2023-02-02T11:40:42.765Z,40.00
2023-02-02T11:43:41.492Z,39.30
2023-02-02T11:46:18.068Z,40.00
2023-02-02T11:49:08.611Z,40.40
2023-02-02T11:51:39.344Z,40.80
2023-02-02T11:54:13.282Z,40.80
2023-02-02T11:56:42.800Z,41.50
2023-02-02T11:59:37.766Z,41.60
2023-02-02T12:02:20.509Z,41.70
2023-02-02T12:04:55.119Z,42.10
2023-02-02T12:07:29.724Z,42.60
2023-02-02T12:10:00.552Z,42.60
2023-02-02T12:13:03.820Z,43.00
2023-02-02T12:15:56.668Z,43.50
2023-02-02T12:18:56.516Z,43.70
2023-02-02T12:21:47.672Z,43.60
2023-02-02T12:24:32.911Z,43.70
2023-02-02T12:27:13.885Z,43.60
2023-02-02T12:30:11.404Z,44.00
2023-02-02T12:33:05.122Z,44.50
2023-02-02T12:36:01.773Z,44.80
2023-02-02T12:39:10.088Z,45.60
2023-02-02T12:41:53.070Z,45.90
2023-02-02T12:44:56.508Z,46.10
2023-02-02T12:47:44.632Z,46.60
2023-02-02T12:50:34.304Z,46.30
2023-02-02T12:53:25.573Z,46.20
2023-02-02T12:56:16.915Z,46.80
2023-02-02T12:59:29.748Z,46.90
2023-02-02T13:02:09.224Z,46.60
2023-02-02T13:05:06.695Z,47.20
2023-02-02T13:07:47.658Z,47.20
2023-02-02T13:10:19.965Z,46.60
2023-02-02T13:13:24.779Z,46.60
2023-02-02T13:15:54.969Z,46.20
2023-02-02T13:18:52.331Z,46.30
2023-02-02T13:21:21.030Z,46.00
2023-02-02T13:23:54.373Z,46.10
2023-02-02T13:26:33.033Z,46.20
2023-02-02T13:29:48.196Z,46.00
2023-02-02T13:32:25.623Z,46.20
2023-02-02T13:35:02.886Z,45.70
2023-02-02T13:37:50.445Z,45.80
2023-02-02T13:40:26.810Z,46.20
2023-02-02T13:43:22.906Z,45.90
2023-02-02T13:46:09.100Z,46.10
2023-02-02T13:49:29.506Z,46.50
2023-02-02T13:52:32.223Z,46.60
2023-02-02T13:55:34.783Z,45.60
2023-02-02T14:00:41.722Z,46.70
2023-02-02T14:03:29.972Z,46.90
2023-02-02T14:06:10.582Z,47.00
2023-02-02T14:08:38.037Z,46.60
2023-02-02T14:11:07.970Z,46.50
2023-02-02T14:14:00.473Z,46.20
2023-02-02T14:16:33.414Z,46.30
2023-02-02T14:19:04.952Z,46.00
2023-02-02T14:21:32.507Z,45.70
2023-02-02T14:24:04.707Z,45.70
2023-02-02T14:26:49.368Z,44.70
2023-02-02T14:29:36.482Z,44.10
2023-02-02T14:32:32.808Z,44.10
2023-02-02T14:35:27.113Z,44.00
2023-02-02T14:38:36.761Z,43.90
2023-02-02T14:41:43.316Z,44.10
2023-02-02T14:44:10.826Z,44.10
2023-02-02T14:46:48.246Z,42.80
2023-02-02T14:49:25.995Z,42.60
2023-02-02T14:51:58.289Z,42.40
2023-02-02T14:54:36.618Z,41.90
2023-02-02T14:57:20.736Z,42.10
2023-02-02T14:59:48.068Z,42.20
2023-02-02T15:02:23.776Z,42.10
2023-02-02T15:04:51.641Z,39.80
2023-02-02T15:07:38.527Z,39.20
2023-02-02T15:10:07.342Z,39.40
2023-02-02T15:12:44.109Z,40.10
2023-02-02T15:15:21.580Z,40.70
2023-02-02T15:18:01.182Z,41.10
2023-02-02T15:20:40.713Z,39.20
2023-02-02T15:23:17.571Z,39.50
2023-02-02T15:26:10.304Z,39.80
2023-02-02T15:28:52.412Z,40.50
2023-02-02T15:31:41.301Z,40.60
2023-02-02T15:34:37.809Z,40.30
2023-02-02T15:37:11.129Z,40.10
2023-02-02T15:39:49.490Z,41.20
2023-02-02T15:42:59.918Z,41.10
2023-02-02T15:45:50.539Z,41.20
2023-02-02T15:48:27.031Z,41.90
2023-02-02T15:50:57.728Z,42.40
2023-02-02T15:53:45.993Z,43.50
2023-02-02T15:56:29.918Z,44.40
2023-02-02T15:58:58.918Z,44.80
2023-02-02T16:01:26.926Z,44.80
2023-02-02T16:04:13.759Z,45.00
2023-02-02T16:06:41.171Z,45.30
2023-02-02T16:09:10.594Z,45.00
2023-02-02T16:11:41.685Z,45.10
2023-02-02T16:14:14.285Z,45.10
2023-02-02T16:16:41.770Z,45.00
2023-02-02T16:19:08.999Z,44.80
2023-02-02T16:21:38.380Z,44.60
2023-02-02T16:24:06.820Z,44.70
2023-02-02T16:26:35.503Z,45.00
2023-02-02T16:29:02.980Z,45.00
2023-02-02T16:31:31.563Z,45.30
2023-02-02T16:34:00.792Z,45.70
2023-02-02T16:36:31.998Z,45.90
2023-02-02T16:39:01.165Z,45.40
2023-02-02T16:41:33.840Z,45.60
2023-02-02T16:44:44.081Z,45.40
2023-02-02T16:47:38.051Z,45.40
2023-02-02T16:50:10.666Z,45.60
2023-02-02T16:52:52.319Z,45.50
2023-02-02T16:55:19.777Z,45.90
2023-02-02T16:57:47.453Z,46.10
2023-02-02T17:00:25.699Z,46.30
2023-02-02T17:02:57.549Z,46.40
2023-02-02T17:05:29.101Z,46.70
2023-02-02T17:08:08.046Z,46.50
2023-02-02T17:10:39.766Z,46.20
2023-02-02T17:13:32.506Z,46.60
2023-02-02T17:15:59.921Z,47.10
2023-02-02T17:18:28.406Z,47.90
2023-02-02T17:20:58.168Z,47.30
2023-02-02T17:23:27.156Z,47.60
2023-02-02T17:25:54.277Z,47.70
2023-02-02T17:28:23.714Z,47.60
2023-02-02T17:31:01.442Z,47.50
2023-02-02T17:33:28.718Z,48.00
2023-02-02T17:35:56.699Z,47.40
2023-02-02T17:38:24.608Z,47.50
2023-02-02T17:40:51.967Z,47.40
2023-02-02T17:43:19.100Z,47.80
2023-02-02T17:45:46.485Z,48.50
2023-02-02T17:48:14.693Z,48.00
2023-02-02T17:50:42.154Z,47.90
2023-02-02T17:53:15.700Z,48.90
2023-02-02T17:55:43.478Z,47.90
2023-02-02T17:58:13.277Z,48.20
2023-02-02T18:00:40.844Z,48.40
2023-02-02T18:03:23.782Z,48.30
2023-02-02T18:05:52.395Z,47.90
2023-02-02T18:08:19.778Z,47.80
2023-02-02T18:10:49.121Z,48.40
2023-02-02T18:13:19.725Z,48.20
2023-02-02T18:15:47.113Z,47.50
2023-02-02T18:18:14.209Z,47.80
2023-02-02T18:20:50.685Z,48.90
2023-02-02T18:23:18.317Z,49.30
2023-02-02T18:25:45.968Z,49.50
2023-02-02T18:28:18.178Z,50.00
2023-02-02T18:30:46.970Z,49.60
2023-02-02T18:33:14.730Z,50.00
2023-02-02T18:35:42.783Z,49.70
2023-02-02T18:38:10.046Z,50.20
2023-02-02T18:40:38.477Z,50.70
2023-02-02T18:43:07.843Z,50.30
2023-02-02T18:45:35.921Z,50.00
2023-02-02T18:48:04.157Z,50.30
2023-02-02T18:50:31.432Z,50.40
2023-02-02T18:52:58.957Z,50.10
2023-02-02T18:55:27.357Z,50.20
2023-02-02T18:57:54.897Z,50.70
2023-02-02T19:00:26.179Z,50.90
2023-02-02T19:02:59.040Z,51.10
2023-02-02T19:05:50.162Z,51.10
2023-02-02T19:08:23.686Z,51.20
2023-02-02T19:10:56.209Z,51.10
2023-02-02T19:13:23.252Z,51.20
2023-02-02T19:15:50.459Z,51.20
2023-02-02T19:18:22.335Z,51.00
2023-02-02T19:20:53.200Z,51.20
2023-02-02T19:23:23.889Z,51.10
2023-02-02T19:25:51.737Z,51.20
2023-02-02T19:28:23.726Z,51.60
2023-02-02T19:30:53.425Z,51.50
2023-02-02T19:33:21.049Z,52.00
2023-02-02T19:35:50.165Z,51.80
2023-02-02T19:38:23.251Z,51.50
2023-02-02T19:40:51.703Z,50.70
2023-02-02T19:43:29.862Z,50.80
2023-02-02T19:45:59.258Z,51.80
2023-02-02T19:48:28.919Z,52.50
2023-02-02T19:50:57.331Z,52.40
2023-02-02T19:53:41.205Z,53.20
2023-02-02T19:56:27.203Z,53.40
2023-02-02T19:58:54.785Z,54.10
2023-02-02T20:01:33.951Z,54.50
2023-02-02T20:04:05.047Z,55.00
2023-02-02T20:06:58.695Z,55.70
2023-02-02T20:09:47.889Z,55.70
2023-02-02T20:12:48.111Z,55.70
2023-02-02T20:15:35.294Z,56.20
2023-02-02T20:18:11.980Z,57.30
2023-02-02T20:20:40.366Z,57.10
2023-02-02T20:23:19.470Z,57.20
2023-02-02T20:25:46.766Z,57.80
2023-02-02T20:28:47.688Z,57.90
2023-02-02T20:31:19.729Z,57.80
2023-02-02T20:33:58.028Z,58.00
2023-02-02T20:36:40.935Z,58.60
2023-02-02T20:39:35.908Z,58.90
2023-02-02T20:42:03.203Z,58.90
2023-02-02T20:44:30.762Z,58.50
2023-02-02T20:46:58.518Z,58.70
2023-02-02T20:49:26.852Z,58.70
2023-02-02T20:51:54.843Z,59.00
2023-02-02T20:54:22.836Z,59.20
2023-02-02T20:56:50.396Z,59.50
2023-02-02T20:59:17.627Z,59.50
2023-02-02T21:01:45.080Z,59.50
2023-02-02T21:04:12.217Z,60.40
2023-02-02T21:06:40.209Z,60.70
2023-02-02T21:09:09.264Z,60.50
2023-02-02T21:11:36.404Z,61.20
2023-02-02T21:14:03.591Z,61.90
2023-02-02T21:16:30.684Z,62.60
2023-02-02T21:18:58.189Z,63.40
2023-02-02T21:21:25.479Z,63.70
2023-02-02T21:23:53.052Z,64.40
2023-02-02T21:26:22.313Z,65.20
2023-02-02T21:28:51.190Z,65.40
2023-02-02T21:31:18.799Z,65.00
2023-02-02T21:33:49.242Z,64.90
2023-02-02T21:36:37.912Z,64.70
2023-02-02T21:39:29.875Z,65.70
2023-02-02T21:42:09.720Z,66.10
2023-02-02T21:44:38.488Z,66.30
2023-02-02T21:47:29.204Z,66.20
2023-02-02T21:49:56.654Z,65.90
2023-02-02T21:52:24.001Z,65.70
2023-02-02T21:54:51.292Z,66.20
2023-02-02T21:57:22.777Z,66.30
2023-02-02T21:59:58.822Z,66.10
2023-02-02T22:02:42.569Z,65.80
2023-02-02T22:05:23.178Z,65.40
2023-02-02T22:07:50.762Z,64.50
2023-02-02T22:10:39.149Z,65.10
2023-02-02T22:13:18.976Z,66.10
2023-02-02T22:15:47.616Z,67.00
2023-02-02T22:18:16.574Z,66.90
2023-02-02T22:20:47.032Z,67.10
2023-02-02T22:23:24.748Z,67.00
2023-02-02T22:25:53.532Z,67.60
2023-02-02T22:28:33.085Z,67.50
2023-02-02T22:31:01.073Z,67.30
2023-02-02T22:33:28.335Z,67.50
2023-02-02T22:35:55.346Z,67.70
2023-02-02T22:38:24.074Z,67.60
2023-02-02T22:40:52.524Z,67.60
2023-02-02T22:43:20.272Z,66.80
2023-02-02T22:45:47.471Z,66.60
2023-02-02T22:48:14.874Z,66.50
2023-02-02T22:50:41.888Z,66.00
2023-02-02T22:53:09.078Z,66.00
2023-02-02T22:55:36.536Z,65.80
2023-02-02T22:58:04.108Z,65.50
2023-02-02T23:00:33.120Z,65.70
2023-02-02T23:03:00.466Z,65.50
2023-02-02T23:05:27.900Z,65.70
2023-02-02T23:07:56.840Z,65.80
2023-02-02T23:10:26.115Z,65.50
2023-02-02T23:12:55.120Z,65.30
2023-02-02T23:15:22.634Z,65.50
2023-02-02T23:17:49.880Z,65.80
2023-02-02T23:20:17.137Z,65.20
2023-02-02T23:22:44.303Z,65.30
2023-02-02T23:25:12.183Z,64.90
2023-02-02T23:27:40.469Z,65.30
2023-02-02T23:30:08.402Z,65.30
2023-02-02T23:32:35.708Z,65.10
2023-02-02T23:35:03.188Z,65.10
2023-02-02T23:37:30.236Z,65.30
2023-02-02T23:39:57.317Z,65.30
2023-02-02T23:42:25.805Z,65.30
2023-02-02T23:44:53.102Z,65.50
2023-02-02T23:47:20.197Z,65.60
2023-02-02T23:49:48.624Z,65.60
2023-02-02T23:52:15.687Z,65.40
2023-02-02T23:54:43.104Z,65.60
2023-02-02T23:57:10.200Z,65.50
2023-02-02T23:59:37.464Z,65.60
